Time;durP1;ratioP1;P1;durP2;ratioP2;P2;SDS_P1;SDS_P2;PMS_P1;PMS_P2;Temp;Humidity;BMP_temperature;BMP_pressure;BME280_temperature;BME280_humidity;BME280_pressure;Samples;Min_cycle;Max_cycle;Signal;HPM_P1;HPM_P2
2022/04/06 00:02:16;;;;;;;4.80;2.70;;;;;;;8.19;82.09;96746.97;5061952;28;20044;-60
2022/04/06 00:04:43;;;;;;;4.88;2.88;;;;;;;8.15;82.32;96745.84;5044921;28;20043;-61
2022/04/06 00:07:10;;;;;;;5.65;2.85;;;;;;;8.13;82.49;96737.22;5055429;28;20045;-62
2022/04/06 00:09:39;;;;;;;5.13;2.50;;;;;;;8.15;82.29;96737.75;5058617;28;20041;-62
2022/04/06 00:12:07;;;;;;;5.20;3.25;;;;;;;8.20;81.97;96734.31;5044451;28;20126;-62
2022/04/06 00:14:35;;;;;;;5.00;2.25;;;;;;;8.05;82.71;96730.38;5046456;28;20055;-62
2022/04/06 00:17:05;;;;;;;6.72;2.55;;;;;;;8.09;82.83;96729.88;5043875;28;20037;-60
2022/04/06 00:19:33;;;;;;;5.20;2.70;;;;;;;7.98;83.34;96723.53;5049210;28;20119;-61
2022/04/06 00:22:00;;;;;;;4.03;2.38;;;;;;;7.98;83.27;96718.97;5055891;28;20041;-61
2022/04/06 00:24:27;;;;;;;4.18;2.30;;;;;;;8.03;83.22;96720.91;5082455;28;20055;-60
2022/04/06 00:26:54;;;;;;;5.43;2.30;;;;;;;8.12;82.63;96715.88;5074455;28;20045;-60
2022/04/06 00:29:21;;;;;;;4.80;2.38;;;;;;;8.06;82.98;96720.41;5058253;28;20056;-62
2022/04/06 00:31:48;;;;;;;4.03;2.30;;;;;;;8.07;82.83;96716.63;5063509;28;20093;-61
2022/04/06 00:34:14;;;;;;;5.90;2.20;;;;;;;8.14;82.34;96713.78;5060071;28;20037;-61
2022/04/06 00:36:41;;;;;;;4.20;2.20;;;;;;;8.07;82.65;96711.25;5050328;28;20040;-62
2022/04/06 00:39:08;;;;;;;4.47;2.53;;;;;;;7.94;83.14;96713.28;5064934;28;20044;-60
2022/04/06 00:41:35;;;;;;;6.40;2.58;;;;;;;7.91;83.52;96716.47;5057334;28;20040;-61
2022/04/06 00:44:16;;;;;;;4.20;2.40;;;;;;;7.91;83.39;96712.94;5045903;28;20052;-60
2022/04/06 00:46:45;;;;;;;4.55;2.38;;;;;;;7.92;83.27;96714.56;5044346;28;20037;-62
2022/04/06 00:49:14;;;;;;;4.55;2.38;;;;;;;7.94;83.50;96715.97;5054519;28;20540;-60
2022/04/06 00:51:47;;;;;;;4.13;2.30;;;;;;;8.02;82.91;96708.50;5065786;28;20041;-61
2022/04/06 00:54:15;;;;;;;4.80;2.35;;;;;;;7.94;83.24;96710.59;5053224;28;20044;-61
2022/04/06 00:56:43;;;;;;;4.93;2.50;;;;;;;7.92;83.36;96701.09;5057711;28;20033;-61
2022/04/06 00:59:10;;;;;;;4.70;2.47;;;;;;;7.93;83.25;96695.44;5053613;28;20041;-62
2022/04/06 01:01:37;;;;;;;3.88;2.20;;;;;;;7.89;83.61;96696.22;5046684;28;20041;-61
2022/04/06 01:04:04;;;;;;;4.60;2.28;;;;;;;7.95;83.10;96697.91;5045351;28;20069;-62
2022/04/06 01:06:31;;;;;;;3.42;1.90;;;;;;;7.93;83.03;96689.25;5048873;28;20036;-61
2022/04/06 01:08:58;;;;;;;4.65;2.50;;;;;;;7.90;83.31;96692.44;5065159;28;20135;-62
2022/04/06 01:11:24;;;;;;;5.30;2.63;;;;;;;7.89;83.54;96688.94;5047851;28;20049;-61
2022/04/06 01:13:52;;;;;;;3.63;1.83;;;;;;;7.92;83.35;96696.53;5064986;28;20048;-61
2022/04/06 01:16:19;;;;;;;4.55;2.28;;;;;;;8.02;83.09;96698.53;5065066;28;20036;-60
2022/04/06 01:18:46;;;;;;;4.15;2.22;;;;;;;8.10;82.53;96693.78;5064808;28;20067;-62
2022/04/06 01:21:13;;;;;;;5.32;2.50;;;;;;;8.19;82.28;96693.03;5048499;28;20044;-61
2022/04/06 01:23:41;;;;;;;3.90;2.00;;;;;;;8.19;81.73;96690.34;5059231;28;20432;-61
2022/04/06 01:26:12;;;;;;;3.58;2.10;;;;;;;8.26;81.67;96697.44;5067510;28;20055;-61
2022/04/06 01:28:40;;;;;;;4.28;2.30;;;;;;;8.24;81.44;96696.84;5054130;28;20122;-60
2022/04/06 01:31:07;;;;;;;4.65;1.90;;;;;;;8.20;81.82;96699.25;5042621;28;20048;-59
2022/04/06 01:33:34;;;;;;;3.80;2.10;;;;;;;8.25;81.45;96701.22;5055730;28;20068;-60
2022/04/06 01:36:00;;;;;;;4.88;2.22;;;;;;;8.05;82.45;96691.81;5067745;28;20040;-60
2022/04/06 01:38:27;;;;;;;4.30;2.17;;;;;;;8.09;82.53;96697.50;5064967;28;20037;-60
2022/04/06 01:40:54;;;;;;;5.03;2.28;;;;;;;8.18;81.57;96696.81;5064525;28;20115;-61
2022/04/06 01:43:21;;;;;;;3.95;2.28;;;;;;;8.26;81.52;96694.75;5058257;28;20041;-61
2022/04/06 01:45:49;;;;;;;5.10;2.40;;;;;;;8.22;81.45;96685.53;5048200;28;20059;-60
2022/04/06 01:48:16;;;;;;;5.75;2.63;;;;;;;8.26;81.45;96681.25;5047416;28;20048;-61
2022/04/06 01:53:29;;;;;;;4.43;2.22;;;;;;;8.13;81.89;96685.16;5058909;28;20044;-62
2022/04/06 01:55:56;;;;;;;4.45;2.45;;;;;;;8.10;81.94;96681.09;5066189;28;20043;-61
2022/04/06 01:58:23;;;;;;;3.78;2.30;;;;;;;8.14;81.78;96679.50;5067781;28;20048;-62
2022/04/06 02:00:52;;;;;;;3.75;2.35;;;;;;;8.07;82.18;96673.50;5063091;28;20040;-61
2022/04/06 02:03:19;;;;;;;4.55;2.17;;;;;;;8.07;82.70;96673.50;5050924;28;20052;-60
2022/04/06 02:05:46;;;;;;;4.88;2.58;;;;;;;7.97;82.66;96685.00;5057110;28;20048;-61
2022/04/06 02:08:13;;;;;;;4.72;2.72;;;;;;;8.09;82.05;96673.25;5066386;28;20044;-61
2022/04/06 02:10:39;;;;;;;4.78;3.00;;;;;;;8.13;81.93;96675.19;5059237;28;20056;-64
2022/04/06 02:13:06;;;;;;;6.32;3.50;;;;;;;8.05;82.50;96675.63;5047296;28;20040;-61
2022/04/06 02:15:33;;;;;;;5.55;3.20;;;;;;;7.93;83.26;96673.88;5048032;28;20045;-60
2022/04/06 02:18:00;;;;;;;5.93;3.60;;;;;;;7.83;83.99;96670.25;5046276;28;20056;-61
2022/04/06 02:20:27;;;;;;;5.78;3.90;;;;;;;7.83;83.99;96670.25;5047596;28;20415;-62
2022/04/06 02:22:53;;;;;;;7.45;4.13;;;;;;;7.86;84.15;96672.47;5059251;28;20047;-61
2022/04/06 02:25:20;;;;;;;6.22;4.38;;;;;;;7.78;84.53;96674.53;5067189;28;20279;-60
2022/04/06 02:27:49;;;;;;;7.95;4.65;;;;;;;7.84;84.43;96669.19;5048286;28;20033;-61
2022/04/06 02:30:17;;;;;;;7.80;4.22;;;;;;;7.72;84.88;96670.16;5047870;28;20052;-61
2022/04/06 02:32:44;;;;;;;6.85;4.55;;;;;;;7.76;85.04;96659.66;5059587;28;20048;-60
2022/04/06 02:35:12;;;;;;;7.05;4.25;;;;;;;7.75;85.10;96660.75;5061514;28;20102;-60
2022/04/06 02:37:41;;;;;;;7.40;4.63;;;;;;;7.76;84.84;96659.66;5047230;28;20040;-61
2022/04/06 02:40:09;;;;;;;7.78;4.95;;;;;;;7.73;85.08;96655.59;5061645;28;20044;-60
2022/04/06 02:42:36;;;;;;;8.50;4.90;;;;;;;7.63;85.81;96656.28;5064608;28;20040;-61
2022/04/06 02:45:03;;;;;;;10.18;4.95;;;;;;;7.63;85.70;96655.50;5047759;28;20048;-60
2022/04/06 02:47:29;;;;;;;7.30;4.97;;;;;;;7.62;85.52;96645.75;5053525;28;20033;-60
2022/04/06 02:49:56;;;;;;;9.00;4.95;;;;;;;7.57;86.16;96645.69;5067167;28;20040;-61
2022/04/06 02:52:23;;;;;;;8.30;4.70;;;;;;;7.50;86.57;96649.41;5066429;28;20040;-62
2022/04/06 02:54:49;;;;;;;7.40;4.95;;;;;;;7.44;87.14;96645.00;5052661;28;20048;-62
2022/04/06 02:57:16;;;;;;;8.63;5.18;;;;;;;7.45;87.27;96654.72;5050324;28;20078;-61
2022/04/06 02:59:42;;;;;;;7.95;5.68;;;;;;;7.36;87.55;96648.13;5061006;28;20036;-62
2022/04/06 03:02:09;;;;;;;7.80;5.18;;;;;;;7.38;87.92;96646.81;5055855;28;20520;-62
2022/04/06 03:04:35;;;;;;;8.38;6.00;;;;;;;7.34;88.08;96637.59;5064607;28;20048;-62
2022/04/06 03:07:02;;;;;;;8.68;5.80;;;;;;;7.28;88.13;96636.75;5062113;28;20040;-60
2022/04/06 03:09:29;;;;;;;8.02;5.53;;;;;;;7.24;88.49;96635.59;5045814;28;20062;-60
2022/04/06 03:11:56;;;;;;;8.35;5.45;;;;;;;7.23;88.56;96625.88;5046578;28;20041;-62
2022/04/06 03:14:23;;;;;;;7.90;5.15;;;;;;;7.30;88.31;96633.81;5048960;28;20045;-61
2022/04/06 03:16:49;;;;;;;10.20;5.75;;;;;;;7.26;88.55;96627.28;5046407;28;20489;-61
2022/04/06 03:19:16;;;;;;;11.05;6.22;;;;;;;7.22;88.96;96629.63;5046081;28;20524;-61
2022/04/06 03:21:42;;;;;;;8.77;5.68;;;;;;;7.23;89.15;96627.78;5046060;28;20448;-60
2022/04/06 03:24:09;;;;;;;8.10;5.38;;;;;;;7.24;89.47;96624.84;5057012;28;20049;-62
2022/04/06 03:26:35;;;;;;;8.73;5.45;;;;;;;7.21;89.72;96627.19;5046047;28;20045;-62
2022/04/06 03:29:02;;;;;;;9.80;5.40;;;;;;;7.20;90.05;96618.31;5045154;28;20045;-61
2022/04/06 03:31:29;;;;;;;9.07;5.30;;;;;;;7.19;90.08;96615.88;5046883;28;20086;-60
2022/04/06 03:33:55;;;;;;;8.93;5.90;;;;;;;7.12;90.76;96614.16;5054697;28;20053;-62
2022/04/06 03:36:22;;;;;;;10.90;6.80;;;;;;;7.06;90.88;96607.09;5048313;28;20037;-62
2022/04/06 03:38:48;;;;;;;8.80;5.70;;;;;;;7.04;91.43;96611.88;5048814;28;20726;-62
2022/04/06 03:41:15;;;;;;;8.60;5.50;;;;;;;7.09;91.64;96609.28;5065129;28;20381;-60
2022/04/06 03:43:41;;;;;;;9.20;5.78;;;;;;;7.09;91.63;96613.84;5065115;28;20036;-61
2022/04/06 03:46:08;;;;;;;8.23;5.15;;;;;;;7.08;92.02;96618.41;5046937;28;20044;-61
2022/04/06 03:48:35;;;;;;;8.23;5.47;;;;;;;7.11;91.71;96615.22;5048028;28;20125;-62
2022/04/06 03:51:03;;;;;;;7.65;5.57;;;;;;;7.07;92.30;96611.41;5050670;28;20045;-62
2022/04/06 03:53:29;;;;;;;9.48;6.05;;;;;;;7.00;92.58;96619.66;5046706;28;20041;-62
2022/04/06 03:55:56;;;;;;;9.95;5.50;;;;;;;7.02;92.46;96606.78;5045070;28;20037;-62
2022/04/06 03:58:22;;;;;;;9.18;4.90;;;;;;;7.01;92.56;96607.81;5046869;28;20041;-62
2022/04/06 04:00:49;;;;;;;13.38;5.25;;;;;;;7.03;92.76;96615.66;5045988;28;20055;-62
2022/04/06 04:03:16;;;;;;;9.68;5.60;;;;;;;7.01;92.89;96610.50;5046658;28;20052;-61
2022/04/06 04:05:42;;;;;;;9.20;5.70;;;;;;;6.97;93.34;96614.75;5045644;28;20056;-62
2022/04/06 04:08:09;;;;;;;7.90;5.90;;;;;;;7.13;92.69;96614.97;5058576;28;20496;-62
2022/04/06 04:10:35;;;;;;;10.43;5.80;;;;;;;7.09;93.10;96608.47;5061580;28;20044;-61
2022/04/06 04:13:02;;;;;;;8.32;5.35;;;;;;;7.08;92.83;96607.63;5057588;28;20041;-60
2022/04/06 04:15:31;;;;;;;8.38;5.50;;;;;;;7.01;93.34;96607.03;5042870;28;20579;-60
2022/04/06 04:17:58;;;;;;;8.95;6.15;;;;;;;6.98;93.33;96611.03;5045315;28;20041;-62
2022/04/06 04:20:25;;;;;;;8.15;5.20;;;;;;;6.92;93.79;96612.00;5045558;28;20055;-62
2022/04/06 04:22:51;;;;;;;9.30;6.20;;;;;;;6.94;93.84;96611.75;5058372;28;20041;-62
2022/04/06 04:25:18;;;;;;;9.80;6.05;;;;;;;6.97;93.83;96609.38;5045844;28;20045;-61
2022/04/06 04:27:44;;;;;;;9.48;5.88;;;;;;;6.90;94.31;96606.06;5043501;28;20052;-60
2022/04/06 04:30:11;;;;;;;9.95;5.22;;;;;;;6.97;93.99;96600.50;5045763;28;20500;-62
2022/04/06 04:32:38;;;;;;;9.85;6.03;;;;;;;6.87;94.71;96599.28;5059515;28;20036;-62
2022/04/06 04:35:06;;;;;;;14.00;7.03;;;;;;;6.80;95.04;96601.34;5050677;28;20048;-62
2022/04/06 04:37:34;;;;;;;9.60;6.50;;;;;;;6.82;95.67;96593.81;5050568;28;20033;-62
2022/04/06 04:40:00;;;;;;;9.50;5.93;;;;;;;6.86;94.94;96594.16;5061954;28;20044;-60
2022/04/06 04:42:27;;;;;;;10.88;6.35;;;;;;;6.79;95.59;96594.34;5064109;28;20051;-62
2022/04/06 04:44:54;;;;;;;10.05;6.65;;;;;;;6.75;96.08;96596.69;5054170;28;20044;-62
2022/04/06 04:47:20;;;;;;;10.70;7.00;;;;;;;6.72;95.95;96599.88;5044575;28;20041;-61
2022/04/06 04:49:47;;;;;;;10.88;6.70;;;;;;;6.73;96.34;96592.63;5044290;28;20045;-62
2022/04/06 04:52:14;;;;;;;12.00;7.57;;;;;;;6.74;96.55;96594.22;5045301;28;20508;-62
2022/04/06 04:54:40;;;;;;;9.23;6.30;;;;;;;6.68;96.45;96588.00;5044636;28;20091;-60
2022/04/06 04:57:07;;;;;;;11.40;6.60;;;;;;;6.73;96.57;96592.63;5051413;28;20049;-60
2022/04/06 04:59:33;;;;;;;13.45;6.70;;;;;;;6.76;96.94;96598.34;5045457;28;20077;-62
2022/04/06 05:02:00;;;;;;;9.27;6.30;;;;;;;6.84;97.10;96585.50;5050942;28;20052;-62
2022/04/06 05:04:26;;;;;;;9.82;6.40;;;;;;;6.76;96.06;96584.06;5045628;28;20060;-61
2022/04/06 05:06:53;;;;;;;11.02;6.47;;;;;;;6.73;96.59;96589.91;5053741;28;20106;-59
2022/04/06 05:09:20;;;;;;;11.88;6.90;;;;;;;6.72;96.52;96588.31;5044549;28;20045;-61
2022/04/06 05:11:47;;;;;;;10.70;6.95;;;;;;;6.73;96.88;96592.63;5044707;28;20044;-60
2022/04/06 05:14:13;;;;;;;9.95;6.93;;;;;;;6.70;96.87;96590.41;5045257;28;20057;-59
2022/04/06 05:16:40;;;;;;;10.00;6.63;;;;;;;6.79;96.63;96583.56;5044859;28;20045;-61
2022/04/06 05:19:06;;;;;;;9.85;6.65;;;;;;;6.81;96.07;96584.13;5044780;28;20045;-62
2022/04/06 05:21:33;;;;;;;9.05;6.30;;;;;;;6.84;95.81;96580.94;5047986;28;20056;-61
2022/04/06 05:24:00;;;;;;;9.48;6.68;;;;;;;6.79;95.74;96580.88;5060710;28;20044;-60
2022/04/06 05:26:26;;;;;;;9.32;6.38;;;;;;;6.80;96.32;96590.56;5055961;28;20051;-62
2022/04/06 05:28:53;;;;;;;10.80;7.07;;;;;;;6.80;96.09;96581.69;5045454;28;20052;-60
2022/04/06 05:31:20;;;;;;;12.35;7.72;;;;;;;6.84;96.31;96589.03;5063733;28;20049;-62
2022/04/06 05:33:46;;;;;;;12.00;6.82;;;;;;;6.85;95.91;96584.44;5061040;28;20468;-61
2022/04/06 05:36:18;;;;;;;10.98;7.15;;;;;;;7.01;95.95;96582.78;5060222;28;20045;-60
2022/04/06 05:38:44;;;;;;;10.90;6.50;;;;;;;7.03;95.17;96577.97;5067219;28;20816;-61
2022/04/06 05:41:11;;;;;;;10.20;6.75;;;;;;;6.96;94.97;96580.84;5044490;28;20051;-62
2022/04/06 05:43:38;;;;;;;11.07;7.05;;;;;;;7.07;95.79;96581.00;5061443;28;20052;-64
2022/04/06 05:46:04;;;;;;;8.40;6.07;;;;;;;7.12;94.80;96581.06;5045459;28;20045;-64
2022/04/06 05:48:31;;;;;;;8.55;5.80;;;;;;;7.26;94.59;96579.59;5042539;28;20045;-62
2022/04/06 05:50:57;;;;;;;10.52;5.65;;;;;;;7.40;91.70;96585.44;5051255;28;20048;-60
2022/04/06 05:53:24;;;;;;;8.13;5.45;;;;;;;7.49;91.37;96583.09;5050189;28;20041;-60
2022/04/06 05:55:51;;;;;;;8.38;5.13;;;;;;;7.67;90.36;96576.56;5058613;28;20116;-61
2022/04/06 05:58:18;;;;;;;7.35;5.07;;;;;;;7.62;90.19;96587.31;5068930;28;20040;-61
2022/04/06 06:00:44;;;;;;;8.35;5.70;;;;;;;7.74;90.40;96586.38;5058927;28;20342;-61
2022/04/06 06:03:11;;;;;;;9.27;5.80;;;;;;;7.83;89.27;96586.72;5055944;28;20049;-62
2022/04/06 06:05:38;;;;;;;8.10;4.78;;;;;;;7.98;88.75;96592.25;5053060;28;20683;-60
2022/04/06 06:08:15;;;;;;;8.85;5.22;;;;;;;7.93;88.15;96590.31;5056374;28;20037;-60
2022/04/06 06:10:42;;;;;;;8.15;4.93;;;;;;;7.94;89.34;96594.66;5055297;28;20063;-61
2022/04/06 06:13:08;;;;;;;7.68;5.15;;;;;;;8.04;88.00;96587.75;5055214;28;20040;-61
2022/04/06 06:15:35;;;;;;;8.07;5.18;;;;;;;8.10;88.02;96591.31;5056747;28;20075;-62
2022/04/06 06:18:01;;;;;;;7.15;4.80;;;;;;;8.09;88.08;96587.78;5058340;28;20680;-61
2022/04/06 06:20:28;;;;;;;8.55;5.70;;;;;;;7.86;89.89;96587.03;5048695;28;20471;-62
2022/04/06 06:22:55;;;;;;;9.38;5.25;;;;;;;8.04;88.75;96582.34;5045348;28;20052;-61
2022/04/06 06:25:22;;;;;;;9.23;4.95;;;;;;;7.97;89.54;96579.03;5052504;28;20405;-61
2022/04/06 06:27:48;;;;;;;13.27;6.45;;;;;;;7.89;90.43;96580.31;5057374;28;20052;-62
2022/04/06 06:30:17;;;;;;;8.32;5.50;;;;;;;7.91;90.06;96587.09;5057542;28;20064;-62
2022/04/06 06:32:45;;;;;;;7.25;5.18;;;;;;;8.20;88.86;96578.72;5054755;28;20041;-61
2022/04/06 06:35:12;;;;;;;5.70;3.88;;;;;;;8.33;87.79;96582.88;5049803;28;20105;-62
2022/04/06 06:37:46;;;;;;;7.82;4.10;;;;;;;8.38;87.44;96579.41;5060384;28;20725;-61
2022/04/06 06:40:13;;;;;;;7.38;3.63;;;;;;;8.46;86.88;96581.63;5045425;28;20049;-60
2022/04/06 06:42:40;;;;;;;7.13;4.45;;;;;;;8.48;86.33;96580.56;5063086;28;20078;-62
2022/04/06 06:45:07;;;;;;;6.30;3.50;;;;;;;8.55;86.49;96576.59;5057782;28;20045;-60
2022/04/06 06:47:34;;;;;;;7.18;3.25;;;;;;;8.64;85.99;96576.13;5046874;28;20567;-61
2022/04/06 06:50:01;;;;;;;7.00;3.70;;;;;;;8.53;85.70;96578.75;5053023;28;20634;-61
2022/04/06 06:52:27;;;;;;;6.85;3.80;;;;;;;8.66;85.88;96576.69;5059951;28;20117;-60
2022/04/06 06:54:54;;;;;;;6.18;4.00;;;;;;;8.51;86.37;96575.47;5060979;28;20108;-60
2022/04/06 06:57:21;;;;;;;5.40;3.60;;;;;;;8.55;86.17;96583.91;5044399;28;20090;-59
2022/04/06 06:59:47;;;;;;;5.53;3.17;;;;;;;8.57;85.61;96579.03;5062419;28;20097;-61
2022/04/06 07:02:14;;;;;;;5.85;3.58;;;;;;;8.70;85.48;96581.28;5059443;28;20056;-59
2022/04/06 07:04:40;;;;;;;5.93;3.20;;;;;;;8.67;85.26;96572.91;5053443;28;20441;-62
2022/04/06 07:07:07;;;;;;;4.80;3.00;;;;;;;8.85;84.77;96579.78;5054014;28;20102;-60
2022/04/06 07:09:33;;;;;;;5.47;3.35;;;;;;;8.88;84.64;96578.44;5056818;28;20049;-60
2022/04/06 07:12:00;;;;;;;4.28;2.78;;;;;;;9.04;83.34;96574.75;5057444;28;20049;-62
2022/04/06 07:14:27;;;;;;;5.72;3.33;;;;;;;8.94;83.95;96574.69;5051930;28;20475;-61
2022/04/06 07:16:54;;;;;;;4.93;2.95;;;;;;;9.04;83.36;96577.47;5051819;28;20052;-60
2022/04/06 07:19:21;;;;;;;5.57;3.10;;;;;;;9.06;83.43;96564.50;5054806;28;20049;-61
2022/04/06 07:21:47;;;;;;;4.70;2.67;;;;;;;9.14;82.89;96567.78;5048997;28;20174;-62
2022/04/06 07:24:14;;;;;;;5.53;2.75;;;;;;;9.09;82.62;96566.69;5077706;28;20071;-61
2022/04/06 07:26:41;;;;;;;5.95;3.00;;;;;;;9.00;83.46;96562.03;5065180;28;20041;-61
2022/04/06 07:29:11;;;;;;;4.05;2.58;;;;;;;8.85;83.75;96563.59;5044168;28;20111;-60
2022/04/06 07:31:38;;;;;;;3.88;2.45;;;;;;;8.86;83.90;96565.22;5054401;28;20056;-61
2022/04/06 07:34:05;;;;;;;4.43;2.47;;;;;;;9.05;83.30;96568.28;5051785;28;20526;-61
2022/04/06 07:36:33;;;;;;;4.47;2.00;;;;;;;8.78;83.72;96566.50;5055255;28;20123;-60
2022/04/06 07:39:02;;;;;;;5.75;4.32;;;;;;;8.96;83.61;96564.47;5064699;28;20041;-59
2022/04/06 07:41:29;;;;;;;3.85;2.35;;;;;;;9.07;83.79;96559.94;5065532;28;20512;-61
2022/04/06 07:43:56;;;;;;;3.78;2.00;;;;;;;9.30;82.73;96563.25;5064409;28;20036;-60
2022/04/06 07:46:23;;;;;;;4.28;1.92;;;;;;;9.42;80.34;96561.16;5064012;28;20036;-61
2022/04/06 07:48:50;;;;;;;2.72;1.45;;;;;;;9.50;79.34;96555.25;5061444;28;20042;-59
2022/04/06 07:51:17;;;;;;;3.75;1.75;;;;;;;9.41;80.34;96559.53;5062101;28;20041;-60
2022/04/06 07:53:44;;;;;;;3.80;1.90;;;;;;;9.28;81.29;96551.91;5050128;28;20067;-61
2022/04/06 07:56:17;;;;;;;4.25;2.20;;;;;;;9.31;80.71;96556.78;5062582;28;20051;-62
2022/04/06 07:58:44;;;;;;;3.33;1.58;;;;;;;9.39;80.23;96553.56;5050236;28;20258;-61
2022/04/06 08:01:10;;;;;;;3.75;1.50;;;;;;;9.42;79.88;96553.03;5050614;28;20111;-59
2022/04/06 08:03:37;;;;;;;2.75;1.30;;;;;;;9.66;78.49;96552.56;5049615;28;20052;-61
2022/04/06 08:06:04;;;;;;;2.90;1.50;;;;;;;9.84;79.04;96550.47;5063504;28;20045;-62
2022/04/06 08:08:31;;;;;;;3.75;1.55;;;;;;;9.82;79.23;96550.72;5043281;28;20099;-61
2022/04/06 08:10:57;;;;;;;3.45;1.70;;;;;;;9.92;78.63;96555.34;5055713;28;20055;-61
2022/04/06 08:13:24;;;;;;;3.42;1.52;;;;;;;9.89;76.19;96559.38;5044523;28;20047;-61
2022/04/06 08:15:51;;;;;;;3.80;1.60;;;;;;;9.83;76.87;96554.22;5043155;28;20202;-62
2022/04/06 08:18:19;;;;;;;4.53;1.48;;;;;;;9.88;76.03;96546.16;5055550;28;20041;-62
2022/04/06 08:20:46;;;;;;;2.00;0.95;;;;;;;10.10;74.66;96545.09;5058644;28;20044;-61
2022/04/06 08:23:13;;;;;;;2.88;1.20;;;;;;;10.21;74.06;96554.81;5053064;28;20076;-58
2022/04/06 08:25:39;;;;;;;1.45;1.00;;;;;;;10.34;71.71;96547.25;5049919;28;20056;-61
2022/04/06 08:28:07;;;;;;;2.15;1.00;;;;;;;10.31;73.31;96545.91;5046106;28;20076;-61
2022/04/06 08:30:39;;;;;;;2.65;1.05;;;;;;;10.38;69.64;96548.34;5054958;28;20044;-62
2022/04/06 08:33:08;;;;;;;2.30;0.77;;;;;;;10.44;69.32;96549.16;5052460;28;20181;-60
2022/04/06 08:35:35;;;;;;;1.95;0.90;;;;;;;10.08;68.92;96541.84;5063010;28;20090;-61
2022/04/06 08:38:03;;;;;;;1.25;0.60;;;;;;;10.02;69.40;96541.00;5057928;28;20403;-61
2022/04/06 08:40:34;;;;;;;3.05;0.98;;;;;;;10.24;69.76;96543.47;5063180;28;20127;-60
2022/04/06 08:43:03;;;;;;;1.92;1.02;;;;;;;10.45;68.02;96538.09;5052696;28;20055;-60
2022/04/06 08:45:33;;;;;;;3.10;0.70;;;;;;;10.46;69.20;96545.13;5060801;28;20431;-61
2022/04/06 08:48:01;;;;;;;1.80;1.08;;;;;;;10.44;66.78;96541.03;5054748;28;20052;-60
2022/04/06 08:50:34;;;;;;;1.70;0.65;;;;;;;10.47;67.03;96541.31;5049323;28;20087;-62
2022/04/06 08:53:02;;;;;;;0.98;0.70;;;;;;;10.73;66.28;96548.63;5062733;28;20044;-62
2022/04/06 08:55:29;;;;;;;3.95;0.77;;;;;;;10.89;68.03;96530.44;5051008;28;20147;-62
2022/04/06 08:57:57;;;;;;;1.70;0.80;;;;;;;10.92;65.96;96546.94;5047924;28;20037;-62
2022/04/06 09:00:24;;;;;;;6.05;1.02;;;;;;;10.76;68.42;96538.03;5049042;28;20053;-60
2022/04/06 09:02:51;;;;;;;2.83;0.70;;;;;;;10.74;67.24;96539.41;5049913;28;20044;-62
2022/04/06 09:05:23;;;;;;;1.13;0.63;;;;;;;10.63;65.91;96539.44;5045898;28;20529;-61
2022/04/06 09:07:53;;;;;;;2.60;0.85;;;;;;;10.85;65.29;96543.72;5057532;28;20553;-61
2022/04/06 09:10:28;;;;;;;2.08;0.82;;;;;;;11.24;65.21;96539.53;5058953;28;20420;-63
2022/04/06 09:13:20;;;;;;;1.77;0.70;;;;;;;11.30;64.41;96535.72;5041113;28;20056;-61
2022/04/06 09:15:53;;;;;;;1.50;0.50;;;;;;;11.39;63.05;96540.56;5041833;28;20564;-60
2022/04/06 09:18:32;;;;;;;1.20;0.57;;;;;;;11.47;63.04;96545.41;5042278;28;20416;-59
2022/04/06 09:21:00;;;;;;;1.08;0.55;;;;;;;11.16;64.35;96540.09;5040973;28;20049;-59
2022/04/06 09:23:29;;;;;;;1.92;0.70;;;;;;;11.45;64.47;96534.03;5062821;28;20051;-60
2022/04/06 09:26:02;;;;;;;1.40;0.50;;;;;;;10.96;63.06;96536.38;5061064;28;20154;-60
2022/04/06 09:28:29;;;;;;;0.98;0.70;;;;;;;11.12;63.00;96533.59;5041654;28;20048;-60
2022/04/06 09:30:56;;;;;;;1.38;0.50;;;;;;;11.02;64.65;96532.56;5049710;28;20057;-61
2022/04/06 09:33:26;;;;;;;1.50;0.60;;;;;;;11.09;64.52;96540.41;5049065;28;20471;-61
2022/04/06 09:35:55;;;;;;;2.13;0.47;;;;;;;11.11;64.77;96530.09;5042789;28;20049;-61
2022/04/06 09:38:23;;;;;;;0.93;0.30;;;;;;;11.20;63.90;96527.63;5057129;28;20045;-61
2022/04/06 09:40:59;;;;;;;1.65;0.60;;;;;;;11.43;65.35;96534.31;5057767;28;20498;-61
2022/04/06 09:43:28;;;;;;;1.17;0.22;;;;;;;11.88;61.63;96524.56;5085965;28;20052;-60
2022/04/06 09:49:03;;;;;;;1.00;0.22;;;;;;;11.71;61.78;96520.34;5073185;28;20421;-60
2022/04/06 09:51:29;;;;;;;0.75;0.40;;;;;;;11.54;62.00;96518.78;5078156;28;20044;-61
2022/04/06 09:53:58;;;;;;;0.82;0.28;;;;;;;11.60;59.93;96525.00;5074075;28;20263;-62
2022/04/06 09:56:24;;;;;;;1.75;0.25;;;;;;;11.65;59.61;96516.84;5084898;28;20044;-61
2022/04/06 09:58:51;;;;;;;0.20;0.20;;;;;;;11.61;61.26;96523.13;5078499;28;20452;-61
2022/04/06 10:01:18;;;;;;;0.40;0.20;;;;;;;11.68;60.43;96515.47;5078973;28;20044;-59
2022/04/06 10:03:52;;;;;;;0.73;0.30;;;;;;;11.47;60.92;96512.88;5073975;28;20058;-60
2022/04/06 10:06:19;;;;;;;1.75;0.43;;;;;;;11.64;60.08;96506.31;5064422;28;20040;-59
2022/04/06 10:08:46;;;;;;;0.47;0.20;;;;;;;11.97;58.27;96496.56;5065787;28;20051;-61
2022/04/06 10:11:13;;;;;;;0.85;0.30;;;;;;;12.23;59.29;96501.84;5081992;28;20536;-60
2022/04/06 10:13:42;;;;;;;0.55;0.30;;;;;;;12.15;60.65;96488.88;5085084;28;20517;-59
2022/04/06 10:16:20;;;;;;;0.40;0.32;;;;;;;12.12;58.88;96486.72;5062361;28;20076;-60
2022/04/06 10:18:48;;;;;;;1.08;0.20;;;;;;;12.51;58.31;96481.50;5076305;28;20047;-61
2022/04/06 10:21:39;;;;;;;1.15;0.75;;;;;;;12.36;58.04;96477.84;5078620;28;20119;-59
2022/04/06 10:24:26;;;;;;;0.45;0.25;;;;;;;12.84;57.09;96474.38;5080130;28;20048;-62
2022/04/06 10:27:02;;;;;;;0.25;0.20;;;;;;;13.15;55.51;96475.91;5084348;28;20044;-60
2022/04/06 10:29:28;;;;;;;0.60;0.30;;;;;;;13.06;56.88;96464.06;5058002;28;20071;-59
2022/04/06 10:31:55;;;;;;;1.15;0.40;;;;;;;13.01;56.34;96464.91;5064983;28;20123;-62
2022/04/06 10:34:30;;;;;;;0.77;0.47;;;;;;;12.84;55.90;96463.50;5058356;28;20044;-61
2022/04/06 10:37:13;;;;;;;7.10;1.13;;;;;;;12.46;56.25;96460.66;5085443;28;20527;-62
2022/04/06 10:39:53;;;;;;;1.42;0.40;;;;;;;12.54;56.74;96468.19;5074502;28;20048;-61
2022/04/06 10:42:33;;;;;;;2.28;0.50;;;;;;;12.43;57.00;96458.50;5069457;28;20055;-62
2022/04/06 10:45:00;;;;;;;0.68;0.40;;;;;;;12.58;57.66;96450.22;5071922;28;20476;-59
2022/04/06 10:47:29;;;;;;;1.38;0.45;;;;;;;12.59;58.81;96456.44;5082944;28;20514;-61
2022/04/06 10:50:08;;;;;;;0.55;0.30;;;;;;;12.50;58.35;96445.41;5075027;28;20414;-60
2022/04/06 10:52:35;;;;;;;0.93;0.40;;;;;;;12.66;54.91;96451.47;5064909;28;20582;-60
2022/04/06 10:55:12;;;;;;;2.97;0.57;;;;;;;12.61;56.70;96448.81;5078361;28;20090;-58
2022/04/06 10:58:02;;;;;;;1.35;0.45;;;;;;;12.96;53.98;96435.91;5063645;28;20037;-61
2022/04/06 11:00:31;;;;;;;1.80;0.40;;;;;;;13.20;54.97;96429.63;5061811;28;20044;-61
2022/04/06 11:03:15;;;;;;;0.63;0.47;;;;;;;13.57;55.67;96421.84;5070260;28;20032;-60
2022/04/06 11:05:45;;;;;;;1.90;0.30;;;;;;;13.72;53.93;96411.81;5072971;28;20074;-60
2022/04/06 11:11:47;;;;;;;0.75;0.40;;;;;;;13.56;54.62;96394.94;5070437;28;20135;-60
2022/04/06 11:14:34;;;;;;;0.40;0.40;;;;;;;13.35;54.63;96401.41;5071442;28;20048;-62
2022/04/06 11:17:01;;;;;;;1.30;0.52;;;;;;;13.20;54.97;96398.94;5073794;28;20092;-61
2022/04/06 11:19:29;;;;;;;0.95;0.38;;;;;;;13.06;54.33;96407.00;5081612;28;20044;-62
2022/04/06 11:21:56;;;;;;;1.75;0.40;;;;;;;13.24;54.70;96403.47;5070178;28;20093;-59
2022/04/06 11:24:27;;;;;;;0.60;0.43;;;;;;;13.55;54.93;96391.38;5065070;28;20041;-60
2022/04/06 11:26:54;;;;;;;0.80;0.43;;;;;;;13.70;54.20;96397.69;5055352;28;20040;-64
2022/04/06 11:29:28;;;;;;;2.90;0.47;;;;;;;13.57;53.11;96389.19;5049487;28;20090;-61
2022/04/06 11:32:00;;;;;;;0.60;0.40;;;;;;;13.36;53.27;96389.47;5051835;28;20053;-62
2022/04/06 11:34:38;;;;;;;1.27;0.50;;;;;;;13.43;53.41;96385.56;5065222;28;20043;-61
2022/04/06 11:37:07;;;;;;;0.52;0.40;;;;;;;13.49;53.11;96368.09;5051677;28;20132;-61
2022/04/06 11:39:35;;;;;;;0.63;0.40;;;;;;;13.99;51.84;96366.75;5053424;28;20343;-60
2022/04/06 11:42:04;;;;;;;0.70;0.40;;;;;;;14.05;52.21;96379.16;5074146;28;20044;-61
2022/04/06 11:44:32;;;;;;;0.55;0.30;;;;;;;14.22;51.66;96377.78;5043766;28;20041;-62
2022/04/06 11:46:58;;;;;;;0.85;0.55;;;;;;;14.23;51.04;96369.28;5060102;28;20048;-59
2022/04/06 11:49:29;;;;;;;0.20;0.20;;;;;;;14.54;52.06;96376.09;5057711;28;20045;-61
2022/04/06 11:51:59;;;;;;;1.58;0.38;;;;;;;14.02;50.73;96379.75;5060365;28;20098;-61
2022/04/06 11:54:27;;;;;;;0.30;0.20;;;;;;;14.07;50.90;96362.53;5054782;28;20045;-61